sensor_id;sensor_type;location;lat;lon;timestamp;P1;durP1;ratioP1;P2;durP2;ratioP2
74229;SDS011;62589;12.568;99.958;2022-12-11T00:02:05;7.97;;;4.95;;
74229;SDS011;62589;12.568;99.958;2022-12-11T00:04:32;6.32;;;4.30;;
74229;SDS011;62589;12.568;99.958;2022-12-11T00:06:59;9.68;;;4.63;;
74229;SDS011;62589;12.568;99.958;2022-12-11T00:09:26;10.07;;;5.00;;
74229;SDS011;62589;12.568;99.958;2022-12-11T00:11:54;7.07;;;4.43;;
74229;SDS011;62589;12.568;99.958;2022-12-11T00:14:21;5.72;;;4.53;;
74229;SDS011;62589;12.568;99.958;2022-12-11T00:16:47;7.00;;;4.72;;
74229;SDS011;62589;12.568;99.958;2022-12-11T00:19:14;5.57;;;4.15;;
74229;SDS011;62589;12.568;99.958;2022-12-11T00:21:41;7.22;;;4.13;;
74229;SDS011;62589;12.568;99.958;2022-12-11T00:24:08;8.75;;;4.40;;
74229;SDS011;62589;12.568;99.958;2022-12-11T00:26:35;6.35;;;4.18;;
74229;SDS011;62589;12.568;99.958;2022-12-11T00:29:02;7.00;;;4.93;;
74229;SDS011;62589;12.568;99.958;2022-12-11T00:31:29;6.63;;;5.03;;
74229;SDS011;62589;12.568;99.958;2022-12-11T00:33:55;7.88;;;5.05;;
74229;SDS011;62589;12.568;99.958;2022-12-11T00:36:23;10.77;;;5.00;;
74229;SDS011;62589;12.568;99.958;2022-12-11T00:38:51;7.97;;;4.50;;
74229;SDS011;62589;12.568;99.958;2022-12-11T00:41:18;9.13;;;4.70;;
74229;SDS011;62589;12.568;99.958;2022-12-11T00:43:45;6.57;;;4.70;;
74229;SDS011;62589;12.568;99.958;2022-12-11T00:46:13;8.30;;;4.85;;
74229;SDS011;62589;12.568;99.958;2022-12-11T00:48:40;6.88;;;4.90;;
74229;SDS011;62589;12.568;99.958;2022-12-11T00:51:07;9.25;;;5.70;;
74229;SDS011;62589;12.568;99.958;2022-12-11T00:53:35;5.97;;;4.72;;
74229;SDS011;62589;12.568;99.958;2022-12-11T00:56:08;7.72;;;4.80;;
74229;SDS011;62589;12.568;99.958;2022-12-11T00:58:36;7.28;;;4.68;;
74229;SDS011;62589;12.568;99.958;2022-12-11T01:01:09;4.90;;;4.40;;
74229;SDS011;62589;12.568;99.958;2022-12-11T01:03:38;7.50;;;5.07;;
74229;SDS011;62589;12.568;99.958;2022-12-11T01:06:05;6.80;;;4.85;;
74229;SDS011;62589;12.568;99.958;2022-12-11T01:08:32;4.72;;;4.22;;
74229;SDS011;62589;12.568;99.958;2022-12-11T01:11:06;6.25;;;4.75;;
74229;SDS011;62589;12.568;99.958;2022-12-11T01:13:34;4.95;;;3.88;;
74229;SDS011;62589;12.568;99.958;2022-12-11T01:16:06;8.07;;;5.38;;
74229;SDS011;62589;12.568;99.958;2022-12-11T01:18:34;9.25;;;4.85;;
74229;SDS011;62589;12.568;99.958;2022-12-11T01:21:08;7.25;;;4.32;;
74229;SDS011;62589;12.568;99.958;2022-12-11T01:23:38;8.18;;;4.93;;
74229;SDS011;62589;12.568;99.958;2022-12-11T01:26:07;7.00;;;4.80;;
74229;SDS011;62589;12.568;99.958;2022-12-11T01:28:35;5.82;;;4.47;;
74229;SDS011;62589;12.568;99.958;2022-12-11T01:31:06;8.40;;;4.78;;
74229;SDS011;62589;12.568;99.958;2022-12-11T01:33:34;6.55;;;4.32;;
74229;SDS011;62589;12.568;99.958;2022-12-11T01:36:05;9.10;;;4.88;;
74229;SDS011;62589;12.568;99.958;2022-12-11T01:38:36;6.82;;;4.57;;
74229;SDS011;62589;12.568;99.958;2022-12-11T01:41:03;9.40;;;4.82;;
74229;SDS011;62589;12.568;99.958;2022-12-11T01:43:29;6.55;;;4.10;;
74229;SDS011;62589;12.568;99.958;2022-12-11T01:45:57;5.90;;;4.53;;
74229;SDS011;62589;12.568;99.958;2022-12-11T01:48:27;7.65;;;5.15;;
74229;SDS011;62589;12.568;99.958;2022-12-11T01:51:00;6.27;;;4.43;;
74229;SDS011;62589;12.568;99.958;2022-12-11T01:55:59;8.70;;;4.50;;
74229;SDS011;62589;12.568;99.958;2022-12-11T02:01:26;6.50;;;4.70;;
74229;SDS011;62589;12.568;99.958;2022-12-11T02:04:00;8.63;;;4.95;;
74229;SDS011;62589;12.568;99.958;2022-12-11T02:06:32;6.07;;;4.90;;
74229;SDS011;62589;12.568;99.958;2022-12-11T02:09:09;7.57;;;4.93;;
74229;SDS011;62589;12.568;99.958;2022-12-11T02:11:44;8.55;;;4.95;;
74229;SDS011;62589;12.568;99.958;2022-12-11T02:14:31;6.57;;;5.00;;
74229;SDS011;62589;12.568;99.958;2022-12-11T02:17:21;5.93;;;4.80;;
74229;SDS011;62589;12.568;99.958;2022-12-11T02:20:02;7.38;;;5.00;;
74229;SDS011;62589;12.568;99.958;2022-12-11T02:29:12;10.30;;;7.50;;
74229;SDS011;62589;12.568;99.958;2022-12-11T02:31:48;9.38;;;6.90;;
74229;SDS011;62589;12.568;99.958;2022-12-11T02:34:32;9.90;;;7.10;;
74229;SDS011;62589;12.568;99.958;2022-12-11T02:37:08;13.20;;;7.70;;
74229;SDS011;62589;12.568;99.958;2022-12-11T02:39:41;8.95;;;6.65;;
74229;SDS011;62589;12.568;99.958;2022-12-11T02:42:10;8.43;;;6.60;;
74229;SDS011;62589;12.568;99.958;2022-12-11T02:44:39;11.10;;;6.82;;
74229;SDS011;62589;12.568;99.958;2022-12-11T02:47:09;10.20;;;6.65;;
74229;SDS011;62589;12.568;99.958;2022-12-11T02:49:38;9.50;;;6.82;;
74229;SDS011;62589;12.568;99.958;2022-12-11T02:52:09;14.52;;;7.53;;
74229;SDS011;62589;12.568;99.958;2022-12-11T02:54:39;12.00;;;6.43;;
74229;SDS011;62589;12.568;99.958;2022-12-11T02:57:16;10.40;;;6.72;;
74229;SDS011;62589;12.568;99.958;2022-12-11T02:59:56;10.00;;;6.20;;
74229;SDS011;62589;12.568;99.958;2022-12-11T03:02:23;9.43;;;6.68;;
74229;SDS011;62589;12.568;99.958;2022-12-11T03:04:50;10.88;;;7.78;;
74229;SDS011;62589;12.568;99.958;2022-12-11T03:07:20;10.20;;;6.70;;
74229;SDS011;62589;12.568;99.958;2022-12-11T03:09:51;10.77;;;7.20;;
74229;SDS011;62589;12.568;99.958;2022-12-11T03:12:19;10.80;;;7.35;;
74229;SDS011;62589;12.568;99.958;2022-12-11T03:14:52;12.68;;;8.27;;
74229;SDS011;62589;12.568;99.958;2022-12-11T03:17:23;15.95;;;8.52;;
74229;SDS011;62589;12.568;99.958;2022-12-11T03:20:10;11.50;;;7.53;;
74229;SDS011;62589;12.568;99.958;2022-12-11T03:25:55;14.00;;;7.28;;
74229;SDS011;62589;12.568;99.958;2022-12-11T03:28:28;12.68;;;8.02;;
74229;SDS011;62589;12.568;99.958;2022-12-11T03:31:00;13.90;;;8.27;;
74229;SDS011;62589;12.568;99.958;2022-12-11T03:33:35;9.45;;;6.80;;
74229;SDS011;62589;12.568;99.958;2022-12-11T03:36:08;9.75;;;7.13;;
74229;SDS011;62589;12.568;99.958;2022-12-11T03:38:46;14.80;;;6.20;;
74229;SDS011;62589;12.568;99.958;2022-12-11T03:41:25;11.13;;;5.88;;
74229;SDS011;62589;12.568;99.958;2022-12-11T03:43:56;9.27;;;6.13;;
74229;SDS011;62589;12.568;99.958;2022-12-11T03:46:29;13.35;;;7.32;;
74229;SDS011;62589;12.568;99.958;2022-12-11T03:49:00;8.65;;;6.90;;
74229;SDS011;62589;12.568;99.958;2022-12-11T03:51:40;9.88;;;6.85;;
74229;SDS011;62589;12.568;99.958;2022-12-11T03:54:08;13.25;;;7.15;;
74229;SDS011;62589;12.568;99.958;2022-12-11T03:56:36;11.20;;;6.80;;
74229;SDS011;62589;12.568;99.958;2022-12-11T03:59:05;9.98;;;6.07;;
74229;SDS011;62589;12.568;99.958;2022-12-11T04:01:32;9.82;;;5.97;;
74229;SDS011;62589;12.568;99.958;2022-12-11T04:04:00;10.50;;;6.90;;
74229;SDS011;62589;12.568;99.958;2022-12-11T04:06:26;9.75;;;6.78;;
74229;SDS011;62589;12.568;99.958;2022-12-11T04:08:53;8.93;;;6.70;;
74229;SDS011;62589;12.568;99.958;2022-12-11T04:11:20;10.30;;;6.38;;
74229;SDS011;62589;12.568;99.958;2022-12-11T04:13:58;9.73;;;6.47;;
74229;SDS011;62589;12.568;99.958;2022-12-11T04:19:08;11.25;;;6.10;;
74229;SDS011;62589;12.568;99.958;2022-12-11T04:21:46;7.78;;;5.90;;
74229;SDS011;62589;12.568;99.958;2022-12-11T04:24:24;8.38;;;5.85;;
74229;SDS011;62589;12.568;99.958;2022-12-11T04:26:50;9.02;;;5.68;;
74229;SDS011;62589;12.568;99.958;2022-12-11T04:29:17;7.82;;;5.00;;
74229;SDS011;62589;12.568;99.958;2022-12-11T04:31:43;7.90;;;5.15;;
74229;SDS011;62589;12.568;99.958;2022-12-11T04:34:10;6.22;;;4.15;;
74229;SDS011;62589;12.568;99.958;2022-12-11T04:36:36;6.18;;;4.70;;
74229;SDS011;62589;12.568;99.958;2022-12-11T04:39:04;10.10;;;5.10;;
74229;SDS011;62589;12.568;99.958;2022-12-11T04:41:30;7.78;;;5.03;;
74229;SDS011;62589;12.568;99.958;2022-12-11T04:43:57;7.03;;;4.60;;
74229;SDS011;62589;12.568;99.958;2022-12-11T04:46:23;5.85;;;4.22;;
74229;SDS011;62589;12.568;99.958;2022-12-11T04:48:51;8.60;;;4.75;;
74229;SDS011;62589;12.568;99.958;2022-12-11T04:51:18;7.40;;;4.75;;
74229;SDS011;62589;12.568;99.958;2022-12-11T04:53:44;5.57;;;4.40;;
74229;SDS011;62589;12.568;99.958;2022-12-11T04:56:12;6.63;;;4.47;;
74229;SDS011;62589;12.568;99.958;2022-12-11T04:58:40;4.57;;;3.63;;
74229;SDS011;62589;12.568;99.958;2022-12-11T05:01:12;6.72;;;3.80;;
74229;SDS011;62589;12.568;99.958;2022-12-11T05:03:40;6.00;;;3.95;;
74229;SDS011;62589;12.568;99.958;2022-12-11T05:06:08;5.68;;;4.13;;
74229;SDS011;62589;12.568;99.958;2022-12-11T05:08:36;5.82;;;4.00;;
74229;SDS011;62589;12.568;99.958;2022-12-11T05:11:05;5.95;;;4.18;;
74229;SDS011;62589;12.568;99.958;2022-12-11T05:13:34;6.93;;;4.03;;
74229;SDS011;62589;12.568;99.958;2022-12-11T05:16:05;9.27;;;4.57;;
74229;SDS011;62589;12.568;99.958;2022-12-11T05:18:33;6.93;;;4.10;;
74229;SDS011;62589;12.568;99.958;2022-12-11T05:21:00;5.20;;;3.90;;
74229;SDS011;62589;12.568;99.958;2022-12-11T05:23:29;5.82;;;4.03;;
74229;SDS011;62589;12.568;99.958;2022-12-11T05:25:58;7.75;;;3.90;;
74229;SDS011;62589;12.568;99.958;2022-12-11T05:28:27;6.35;;;4.40;;
74229;SDS011;62589;12.568;99.958;2022-12-11T05:31:02;5.25;;;4.15;;
74229;SDS011;62589;12.568;99.958;2022-12-11T05:33:31;4.68;;;3.95;;
74229;SDS011;62589;12.568;99.958;2022-12-11T05:35:58;6.70;;;4.68;;
74229;SDS011;62589;12.568;99.958;2022-12-11T05:38:25;6.55;;;4.22;;
74229;SDS011;62589;12.568;99.958;2022-12-11T05:40:59;5.47;;;3.97;;
74229;SDS011;62589;12.568;99.958;2022-12-11T05:43:31;7.32;;;4.70;;
74229;SDS011;62589;12.568;99.958;2022-12-11T05:46:09;6.75;;;4.65;;
74229;SDS011;62589;12.568;99.958;2022-12-11T05:48:41;6.93;;;4.53;;
74229;SDS011;62589;12.568;99.958;2022-12-11T05:51:10;5.57;;;4.45;;
74229;SDS011;62589;12.568;99.958;2022-12-11T05:53:38;7.72;;;4.70;;
74229;SDS011;62589;12.568;99.958;2022-12-11T05:56:07;7.22;;;4.65;;
74229;SDS011;62589;12.568;99.958;2022-12-11T05:58:36;8.15;;;4.60;;
74229;SDS011;62589;12.568;99.958;2022-12-11T06:01:07;5.00;;;3.88;;
74229;SDS011;62589;12.568;99.958;2022-12-11T06:03:35;6.28;;;4.40;;
74229;SDS011;62589;12.568;99.958;2022-12-11T06:06:02;13.35;;;5.18;;
74229;SDS011;62589;12.568;99.958;2022-12-11T06:08:29;5.95;;;4.63;;
74229;SDS011;62589;12.568;99.958;2022-12-11T06:10:56;5.90;;;4.38;;
74229;SDS011;62589;12.568;99.958;2022-12-11T06:13:23;7.85;;;4.63;;
74229;SDS011;62589;12.568;99.958;2022-12-11T06:15:51;5.68;;;4.18;;
74229;SDS011;62589;12.568;99.958;2022-12-11T06:18:18;7.70;;;5.32;;
74229;SDS011;62589;12.568;99.958;2022-12-11T06:20:44;9.15;;;5.18;;
74229;SDS011;62589;12.568;99.958;2022-12-11T06:23:11;8.48;;;5.35;;
74229;SDS011;62589;12.568;99.958;2022-12-11T06:25:38;8.13;;;5.38;;
74229;SDS011;62589;12.568;99.958;2022-12-11T06:28:05;11.85;;;4.68;;
74229;SDS011;62589;12.568;99.958;2022-12-11T06:30:31;6.15;;;4.70;;
74229;SDS011;62589;12.568;99.958;2022-12-11T06:32:57;8.55;;;5.70;;
74229;SDS011;62589;12.568;99.958;2022-12-11T06:35:24;9.88;;;5.10;;
74229;SDS011;62589;12.568;99.958;2022-12-11T06:37:50;8.00;;;5.00;;
74229;SDS011;62589;12.568;99.958;2022-12-11T06:40:17;4.95;;;4.30;;
74229;SDS011;62589;12.568;99.958;2022-12-11T06:42:43;5.40;;;3.97;;
74229;SDS011;62589;12.568;99.958;2022-12-11T06:45:10;8.25;;;4.82;;
74229;SDS011;62589;12.568;99.958;2022-12-11T06:47:36;6.10;;;4.78;;
74229;SDS011;62589;12.568;99.958;2022-12-11T06:50:03;6.75;;;4.05;;
74229;SDS011;62589;12.568;99.958;2022-12-11T06:52:29;7.57;;;5.03;;
74229;SDS011;62589;12.568;99.958;2022-12-11T06:54:56;7.47;;;4.72;;
74229;SDS011;62589;12.568;99.958;2022-12-11T06:57:22;7.25;;;5.05;;
74229;SDS011;62589;12.568;99.958;2022-12-11T06:59:49;6.75;;;4.53;;
74229;SDS011;62589;12.568;99.958;2022-12-11T07:02:16;5.60;;;4.38;;
74229;SDS011;62589;12.568;99.958;2022-12-11T07:04:43;6.60;;;4.47;;
74229;SDS011;62589;12.568;99.958;2022-12-11T07:07:10;6.53;;;4.80;;
74229;SDS011;62589;12.568;99.958;2022-12-11T07:09:37;5.47;;;4.15;;
74229;SDS011;62589;12.568;99.958;2022-12-11T07:12:05;5.57;;;4.55;;
74229;SDS011;62589;12.568;99.958;2022-12-11T07:14:31;9.55;;;4.65;;
74229;SDS011;62589;12.568;99.958;2022-12-11T07:16:58;6.10;;;4.32;;
74229;SDS011;62589;12.568;99.958;2022-12-11T07:19:25;6.75;;;4.18;;
74229;SDS011;62589;12.568;99.958;2022-12-11T07:21:51;8.20;;;3.78;;
74229;SDS011;62589;12.568;99.958;2022-12-11T07:24:18;6.82;;;4.50;;
74229;SDS011;62589;12.568;99.958;2022-12-11T07:26:44;10.88;;;4.63;;
74229;SDS011;62589;12.568;99.958;2022-12-11T07:29:11;6.50;;;4.68;;
74229;SDS011;62589;12.568;99.958;2022-12-11T07:31:37;6.68;;;4.35;;
74229;SDS011;62589;12.568;99.958;2022-12-11T07:34:05;5.82;;;4.28;;
74229;SDS011;62589;12.568;99.958;2022-12-11T07:36:32;5.38;;;4.50;;
74229;SDS011;62589;12.568;99.958;2022-12-11T07:38:59;5.47;;;4.43;;
74229;SDS011;62589;12.568;99.958;2022-12-11T07:41:26;6.20;;;4.32;;
74229;SDS011;62589;12.568;99.958;2022-12-11T07:43:53;7.55;;;4.55;;
74229;SDS011;62589;12.568;99.958;2022-12-11T07:46:22;5.53;;;4.57;;
74229;SDS011;62589;12.568;99.958;2022-12-11T07:48:50;5.93;;;4.40;;
74229;SDS011;62589;12.568;99.958;2022-12-11T07:51:19;4.97;;;4.03;;
74229;SDS011;62589;12.568;99.958;2022-12-11T07:53:51;7.18;;;4.50;;
74229;SDS011;62589;12.568;99.958;2022-12-11T07:56:18;7.65;;;4.38;;
74229;SDS011;62589;12.568;99.958;2022-12-11T07:58:45;4.97;;;3.47;;
74229;SDS011;62589;12.568;99.958;2022-12-11T08:01:19;6.47;;;4.50;;
74229;SDS011;62589;12.568;99.958;2022-12-11T08:03:50;5.35;;;3.90;;
74229;SDS011;62589;12.568;99.958;2022-12-11T08:06:17;5.35;;;3.90;;
74229;SDS011;62589;12.568;99.958;2022-12-11T08:08:45;6.70;;;4.28;;
74229;SDS011;62589;12.568;99.958;2022-12-11T08:11:13;5.40;;;3.92;;
74229;SDS011;62589;12.568;99.958;2022-12-11T08:13:40;4.88;;;3.92;;
74229;SDS011;62589;12.568;99.958;2022-12-11T08:16:08;6.57;;;4.70;;
74229;SDS011;62589;12.568;99.958;2022-12-11T08:18:37;4.60;;;3.67;;
74229;SDS011;62589;12.568;99.958;2022-12-11T08:21:05;5.75;;;4.15;;
74229;SDS011;62589;12.568;99.958;2022-12-11T08:23:32;5.35;;;3.92;;
74229;SDS011;62589;12.568;99.958;2022-12-11T08:26:00;5.82;;;3.90;;
74229;SDS011;62589;12.568;99.958;2022-12-11T08:28:28;6.25;;;4.32;;
74229;SDS011;62589;12.568;99.958;2022-12-11T08:30:55;5.95;;;4.05;;
74229;SDS011;62589;12.568;99.958;2022-12-11T08:33:22;7.30;;;4.22;;
74229;SDS011;62589;12.568;99.958;2022-12-11T08:35:49;5.68;;;3.80;;
74229;SDS011;62589;12.568;99.958;2022-12-11T08:38:15;6.13;;;4.45;;
74229;SDS011;62589;12.568;99.958;2022-12-11T08:40:42;7.63;;;4.32;;
74229;SDS011;62589;12.568;99.958;2022-12-11T08:43:08;5.38;;;4.38;;
74229;SDS011;62589;12.568;99.958;2022-12-11T08:45:35;5.28;;;3.97;;
74229;SDS011;62589;12.568;99.958;2022-12-11T08:48:02;6.28;;;4.53;;
74229;SDS011;62589;12.568;99.958;2022-12-11T08:50:28;7.50;;;4.18;;
74229;SDS011;62589;12.568;99.958;2022-12-11T08:52:55;4.97;;;4.25;;
74229;SDS011;62589;12.568;99.958;2022-12-11T08:55:22;7.05;;;4.80;;
74229;SDS011;62589;12.568;99.958;2022-12-11T08:57:49;8.43;;;4.63;;
74229;SDS011;62589;12.568;99.958;2022-12-11T09:00:15;5.57;;;4.10;;
74229;SDS011;62589;12.568;99.958;2022-12-11T09:02:43;5.25;;;4.07;;
74229;SDS011;62589;12.568;99.958;2022-12-11T09:05:09;5.47;;;4.18;;
74229;SDS011;62589;12.568;99.958;2022-12-11T09:07:36;5.70;;;4.50;;
74229;SDS011;62589;12.568;99.958;2022-12-11T09:10:04;5.05;;;4.13;;
74229;SDS011;62589;12.568;99.958;2022-12-11T09:12:33;6.47;;;4.82;;
74229;SDS011;62589;12.568;99.958;2022-12-11T09:14:59;4.78;;;4.20;;
74229;SDS011;62589;12.568;99.958;2022-12-11T09:17:27;5.85;;;4.28;;
74229;SDS011;62589;12.568;99.958;2022-12-11T09:19:53;6.07;;;4.30;;
74229;SDS011;62589;12.568;99.958;2022-12-11T09:22:19;4.80;;;3.85;;
74229;SDS011;62589;12.568;99.958;2022-12-11T09:24:46;5.93;;;3.95;;
74229;SDS011;62589;12.568;99.958;2022-12-11T09:27:12;4.57;;;4.10;;
74229;SDS011;62589;12.568;99.958;2022-12-11T09:29:39;7.13;;;4.22;;
74229;SDS011;62589;12.568;99.958;2022-12-11T09:32:05;4.57;;;3.70;;
74229;SDS011;62589;12.568;99.958;2022-12-11T09:34:31;4.93;;;4.30;;
74229;SDS011;62589;12.568;99.958;2022-12-11T09:36:59;8.00;;;4.50;;
74229;SDS011;62589;12.568;99.958;2022-12-11T09:39:26;6.43;;;4.35;;
74229;SDS011;62589;12.568;99.958;2022-12-11T09:44:45;5.90;;;4.53;;
74229;SDS011;62589;12.568;99.958;2022-12-11T09:50:03;4.13;;;3.72;;
74229;SDS011;62589;12.568;99.958;2022-12-11T09:55:36;5.72;;;4.30;;
74229;SDS011;62589;12.568;99.958;2022-12-11T10:07:20;6.72;;;4.32;;
74229;SDS011;62589;12.568;99.958;2022-12-11T10:10:09;5.03;;;4.20;;
74229;SDS011;62589;12.568;99.958;2022-12-11T10:13:00;5.63;;;3.90;;
74229;SDS011;62589;12.568;99.958;2022-12-11T10:15:56;4.60;;;4.00;;
74229;SDS011;62589;12.568;99.958;2022-12-11T10:18:27;6.70;;;4.20;;
74229;SDS011;62589;12.568;99.958;2022-12-11T10:20:55;4.80;;;3.72;;
74229;SDS011;62589;12.568;99.958;2022-12-11T10:23:45;5.90;;;4.28;;
74229;SDS011;62589;12.568;99.958;2022-12-11T10:26:20;6.65;;;3.55;;
74229;SDS011;62589;12.568;99.958;2022-12-11T10:28:48;4.10;;;3.70;;
74229;SDS011;62589;12.568;99.958;2022-12-11T10:34:15;5.82;;;3.78;;
74229;SDS011;62589;12.568;99.958;2022-12-11T10:36:57;4.75;;;3.33;;
74229;SDS011;62589;12.568;99.958;2022-12-11T10:39:24;7.78;;;3.60;;
74229;SDS011;62589;12.568;99.958;2022-12-11T10:41:52;6.25;;;4.28;;
74229;SDS011;62589;12.568;99.958;2022-12-11T10:44:21;11.25;;;5.00;;
74229;SDS011;62589;12.568;99.958;2022-12-11T10:49:50;7.25;;;4.22;;
74229;SDS011;62589;12.568;99.958;2022-12-11T10:52:21;6.60;;;4.72;;
74229;SDS011;62589;12.568;99.958;2022-12-11T10:54:54;7.85;;;4.53;;
74229;SDS011;62589;12.568;99.958;2022-12-11T10:57:36;6.88;;;4.35;;
74229;SDS011;62589;12.568;99.958;2022-12-11T11:00:06;9.48;;;4.63;;
74229;SDS011;62589;12.568;99.958;2022-12-11T11:02:51;7.50;;;4.78;;
74229;SDS011;62589;12.568;99.958;2022-12-11T11:08:19;9.77;;;5.45;;
74229;SDS011;62589;12.568;99.958;2022-12-11T11:10:56;11.18;;;6.88;;
74229;SDS011;62589;12.568;99.958;2022-12-11T11:13:25;12.82;;;7.65;;
74229;SDS011;62589;12.568;99.958;2022-12-11T11:15:58;18.08;;;10.07;;
74229;SDS011;62589;12.568;99.958;2022-12-11T11:18:34;19.70;;;10.57;;
74229;SDS011;62589;12.568;99.958;2022-12-11T11:21:01;18.70;;;11.35;;
74229;SDS011;62589;12.568;99.958;2022-12-11T11:23:28;17.75;;;11.75;;
74229;SDS011;62589;12.568;99.958;2022-12-11T11:25:56;16.08;;;10.98;;
74229;SDS011;62589;12.568;99.958;2022-12-11T11:28:26;15.50;;;10.20;;
74229;SDS011;62589;12.568;99.958;2022-12-11T11:31:05;15.75;;;9.25;;
74229;SDS011;62589;12.568;99.958;2022-12-11T11:33:35;12.60;;;8.93;;
74229;SDS011;62589;12.568;99.958;2022-12-11T11:36:16;15.85;;;9.52;;
74229;SDS011;62589;12.568;99.958;2022-12-11T11:38:49;19.52;;;11.38;;
74229;SDS011;62589;12.568;99.958;2022-12-11T11:41:41;20.90;;;13.00;;
74229;SDS011;62589;12.568;99.958;2022-12-11T11:44:23;17.92;;;11.52;;
74229;SDS011;62589;12.568;99.958;2022-12-11T11:46:58;16.90;;;9.95;;
74229;SDS011;62589;12.568;99.958;2022-12-11T11:58:36;14.07;;;7.20;;
74229;SDS011;62589;12.568;99.958;2022-12-11T12:01:11;10.75;;;6.63;;
74229;SDS011;62589;12.568;99.958;2022-12-11T12:03:41;11.77;;;6.63;;
74229;SDS011;62589;12.568;99.958;2022-12-11T12:06:30;11.63;;;6.30;;
74229;SDS011;62589;12.568;99.958;2022-12-11T12:09:25;8.75;;;6.10;;
74229;SDS011;62589;12.568;99.958;2022-12-11T12:26:56;11.68;;;8.25;;
74229;SDS011;62589;12.568;99.958;2022-12-11T12:29:44;9.05;;;6.72;;
74229;SDS011;62589;12.568;99.958;2022-12-11T12:35:36;12.68;;;7.35;;
74229;SDS011;62589;12.568;99.958;2022-12-11T12:38:14;8.60;;;6.22;;
74229;SDS011;62589;12.568;99.958;2022-12-11T12:41:07;9.30;;;6.25;;
74229;SDS011;62589;12.568;99.958;2022-12-11T12:43:58;9.30;;;6.38;;
74229;SDS011;62589;12.568;99.958;2022-12-11T12:52:15;9.23;;;5.78;;
74229;SDS011;62589;12.568;99.958;2022-12-11T12:54:47;10.10;;;6.40;;
74229;SDS011;62589;12.568;99.958;2022-12-11T12:57:30;9.48;;;6.20;;
74229;SDS011;62589;12.568;99.958;2022-12-11T12:59:58;8.95;;;6.03;;
74229;SDS011;62589;12.568;99.958;2022-12-11T13:02:25;9.02;;;6.50;;
74229;SDS011;62589;12.568;99.958;2022-12-11T13:04:59;14.07;;;6.43;;
74229;SDS011;62589;12.568;99.958;2022-12-11T13:07:32;9.20;;;6.40;;
74229;SDS011;62589;12.568;99.958;2022-12-11T13:10:00;10.27;;;6.30;;
74229;SDS011;62589;12.568;99.958;2022-12-11T13:12:33;11.18;;;6.93;;
74229;SDS011;62589;12.568;99.958;2022-12-11T13:17:59;7.43;;;6.35;;
74229;SDS011;62589;12.568;99.958;2022-12-11T13:20:32;8.85;;;6.90;;
74229;SDS011;62589;12.568;99.958;2022-12-11T13:23:15;11.90;;;7.10;;
74229;SDS011;62589;12.568;99.958;2022-12-11T13:25:46;10.55;;;7.70;;
74229;SDS011;62589;12.568;99.958;2022-12-11T13:28:25;10.05;;;7.30;;
74229;SDS011;62589;12.568;99.958;2022-12-11T13:34:01;11.52;;;7.78;;
74229;SDS011;62589;12.568;99.958;2022-12-11T13:36:39;12.88;;;7.55;;
74229;SDS011;62589;12.568;99.958;2022-12-11T13:39:18;13.15;;;8.77;;
74229;SDS011;62589;12.568;99.958;2022-12-11T13:41:53;10.52;;;7.47;;
74229;SDS011;62589;12.568;99.958;2022-12-11T13:44:24;12.23;;;7.78;;
74229;SDS011;62589;12.568;99.958;2022-12-11T13:46:59;9.38;;;7.28;;
74229;SDS011;62589;12.568;99.958;2022-12-11T13:49:29;10.02;;;7.25;;
74229;SDS011;62589;12.568;99.958;2022-12-11T13:54:28;12.65;;;7.47;;
74229;SDS011;62589;12.568;99.958;2022-12-11T13:59:51;8.57;;;7.07;;
74229;SDS011;62589;12.568;99.958;2022-12-11T14:05:07;10.65;;;7.03;;
74229;SDS011;62589;12.568;99.958;2022-12-11T14:07:52;11.90;;;7.60;;
74229;SDS011;62589;12.568;99.958;2022-12-11T14:10:24;11.75;;;7.95;;
74229;SDS011;62589;12.568;99.958;2022-12-11T14:12:56;14.45;;;7.72;;
74229;SDS011;62589;12.568;99.958;2022-12-11T14:15:30;9.82;;;7.35;;
74229;SDS011;62589;12.568;99.958;2022-12-11T14:18:00;11.68;;;7.55;;
74229;SDS011;62589;12.568;99.958;2022-12-11T14:20:28;9.32;;;6.63;;
74229;SDS011;62589;12.568;99.958;2022-12-11T14:25:56;11.20;;;7.38;;
74229;SDS011;62589;12.568;99.958;2022-12-11T14:28:42;12.75;;;7.43;;
74229;SDS011;62589;12.568;99.958;2022-12-11T14:31:11;10.75;;;7.80;;
74229;SDS011;62589;12.568;99.958;2022-12-11T14:33:42;10.38;;;7.32;;
74229;SDS011;62589;12.568;99.958;2022-12-11T14:36:14;10.40;;;8.00;;
74229;SDS011;62589;12.568;99.958;2022-12-11T14:38:43;11.55;;;7.18;;
74229;SDS011;62589;12.568;99.958;2022-12-11T14:41:20;9.65;;;7.15;;
74229;SDS011;62589;12.568;99.958;2022-12-11T14:43:53;12.23;;;7.90;;
74229;SDS011;62589;12.568;99.958;2022-12-11T14:46:33;12.95;;;8.02;;
74229;SDS011;62589;12.568;99.958;2022-12-11T14:49:16;10.93;;;7.55;;
74229;SDS011;62589;12.568;99.958;2022-12-11T14:52:02;11.45;;;7.78;;
74229;SDS011;62589;12.568;99.958;2022-12-11T14:54:34;11.90;;;7.80;;
74229;SDS011;62589;12.568;99.958;2022-12-11T14:57:06;9.50;;;7.45;;
74229;SDS011;62589;12.568;99.958;2022-12-11T14:59:43;11.88;;;7.45;;
74229;SDS011;62589;12.568;99.958;2022-12-11T15:02:23;13.85;;;7.60;;
74229;SDS011;62589;12.568;99.958;2022-12-11T15:10:29;10.93;;;7.30;;
74229;SDS011;62589;12.568;99.958;2022-12-11T15:13:03;9.52;;;6.97;;
74229;SDS011;62589;12.568;99.958;2022-12-11T15:15:32;9.63;;;6.97;;
74229;SDS011;62589;12.568;99.958;2022-12-11T15:18:12;9.80;;;7.20;;
74229;SDS011;62589;12.568;99.958;2022-12-11T15:20:52;12.05;;;7.22;;
74229;SDS011;62589;12.568;99.958;2022-12-11T15:23:22;11.68;;;8.18;;
74229;SDS011;62589;12.568;99.958;2022-12-11T15:25:52;9.07;;;6.97;;
74229;SDS011;62589;12.568;99.958;2022-12-11T15:28:29;12.25;;;8.32;;
74229;SDS011;62589;12.568;99.958;2022-12-11T15:31:00;13.20;;;7.93;;
74229;SDS011;62589;12.568;99.958;2022-12-11T15:33:31;11.48;;;7.68;;
74229;SDS011;62589;12.568;99.958;2022-12-11T15:35:59;11.48;;;7.93;;
74229;SDS011;62589;12.568;99.958;2022-12-11T15:38:33;12.45;;;8.60;;
74229;SDS011;62589;12.568;99.958;2022-12-11T15:41:04;13.23;;;7.88;;
74229;SDS011;62589;12.568;99.958;2022-12-11T15:43:37;13.10;;;8.43;;
74229;SDS011;62589;12.568;99.958;2022-12-11T15:46:05;12.35;;;8.52;;
74229;SDS011;62589;12.568;99.958;2022-12-11T15:48:32;12.00;;;8.55;;
74229;SDS011;62589;12.568;99.958;2022-12-11T15:50:59;12.00;;;7.72;;
74229;SDS011;62589;12.568;99.958;2022-12-11T15:53:26;12.85;;;8.15;;
74229;SDS011;62589;12.568;99.958;2022-12-11T15:55:52;15.32;;;8.50;;
74229;SDS011;62589;12.568;99.958;2022-12-11T15:58:20;10.73;;;7.65;;
74229;SDS011;62589;12.568;99.958;2022-12-11T16:00:49;11.98;;;7.63;;
74229;SDS011;62589;12.568;99.958;2022-12-11T16:03:16;10.93;;;7.30;;
74229;SDS011;62589;12.568;99.958;2022-12-11T16:05:44;10.07;;;7.18;;
74229;SDS011;62589;12.568;99.958;2022-12-11T16:08:12;13.93;;;7.85;;
74229;SDS011;62589;12.568;99.958;2022-12-11T16:10:41;11.57;;;7.95;;
74229;SDS011;62589;12.568;99.958;2022-12-11T16:13:09;12.02;;;8.45;;
74229;SDS011;62589;12.568;99.958;2022-12-11T16:15:37;11.20;;;8.10;;
74229;SDS011;62589;12.568;99.958;2022-12-11T16:18:07;15.15;;;9.18;;
74229;SDS011;62589;12.568;99.958;2022-12-11T16:20:36;11.50;;;8.77;;
74229;SDS011;62589;12.568;99.958;2022-12-11T16:23:05;14.85;;;9.70;;
74229;SDS011;62589;12.568;99.958;2022-12-11T16:25:33;15.30;;;10.05;;
74229;SDS011;62589;12.568;99.958;2022-12-11T16:28:04;16.20;;;10.02;;
74229;SDS011;62589;12.568;99.958;2022-12-11T16:30:32;15.77;;;9.88;;
74229;SDS011;62589;12.568;99.958;2022-12-11T16:33:01;14.90;;;9.75;;